Blanca, Spain
Current Conditions -  °F | °C
As of 1:00 PM on Sunday 23 Nov 2014 (Local Time) from LELC Reporting Station
Clear Clear  
Wind Chill: 68°   Ceiling: Unl
Heat Index: 68°   Visibility: 6mi
Dew Point: 59°   Wind: 12mph
Humidity: 73%   Direction: 130°SE
Pressure: 29.91"   Gusts: NA
Location:  38.18°N, 1.37°W
Report Text: LELC 231200Z 13010KT 100V160 CAVOK 20/15 Q1013 NOSIG
Loading
Personal Weather Stations






























Interactive Weather Map New forecast layout! Learn more

10-Day Weather Forecast

Advertisements
Track Severe Weather on mobile